AZA1667 LIRF-LIRP
Flight info
| Callsign | AZA1667 |
|---|---|
| Flight time | N/A |
| Altitude | 26000 |
| Route | GILIO M729 NORNI |
| Aircraft | A321/M-SDE3FGHIRWY/LB1 |
Departure
| Time | 2026-05-07 19:21 |
|---|---|
| Airport | Rome–Fiumicino Leonardo da Vinci International Airport (LIRF) |
Arrival
| Time | N/A |
|---|---|
| Airport | Pisa International Airport (LIRP) |
| Time | Latitude | Longitude | Altitude | Speed | Heading |
|---|---|---|---|---|---|
| 2026-05-07 18:42 | 41.79688 | 12.25620 | 14 ft | 0 kts | 295° |
| 2026-05-07 19:13 | 41.79687 | 12.25624 | 15 ft | 3 kts | 295° |
| 2026-05-07 19:13 | 41.79677 | 12.25651 | 17 ft | 1 kts | 295° |
| 2026-05-07 19:16 | 41.79680 | 12.25650 | 17 ft | 1 kts | 317° |
| 2026-05-07 19:16 | 41.79689 | 12.25664 | 16 ft | 8 kts | 60° |
| 2026-05-07 19:16 | 41.79762 | 12.25746 | 14 ft | 13 kts | 27° |
| 2026-05-07 19:16 | 41.79842 | 12.25798 | 14 ft | 12 kts | 27° |
| 2026-05-07 19:17 | 41.79890 | 12.25898 | 14 ft | 18 kts | 98° |
| 2026-05-07 19:17 | 41.79840 | 12.26065 | 14 ft | 19 kts | 116° |
| 2026-05-07 19:17 | 41.79866 | 12.26187 | 14 ft | 15 kts | 34° |
| 2026-05-07 19:17 | 41.79994 | 12.26270 | 14 ft | 28 kts | 24° |
| 2026-05-07 19:18 | 41.80191 | 12.26388 | 14 ft | 26 kts | 23° |
| 2026-05-07 19:18 | 41.80359 | 12.26367 | 15 ft | 24 kts | 349° |
| 2026-05-07 19:18 | 41.80407 | 12.26278 | 15 ft | 11 kts | 269° |
| 2026-05-07 19:18 | 41.80492 | 12.26176 | 16 ft | 28 kts | 346° |
| 2026-05-07 19:19 | 41.80675 | 12.26103 | 17 ft | 15 kts | 342° |
| 2026-05-07 19:19 | 41.80718 | 12.26036 | 18 ft | 10 kts | 256° |
| 2026-05-07 19:19 | 41.80707 | 12.25997 | 18 ft | 0 kts | 244° |
| 2026-05-07 19:19 | 41.80706 | 12.25995 | 18 ft | 0 kts | 244° |
| 2026-05-07 19:20 | 41.80703 | 12.25987 | 20 ft | 5 kts | 244° |
| 2026-05-07 19:20 | 41.80630 | 12.25746 | 18 ft | 62 kts | 250° |
| 2026-05-07 19:21 | 41.80406 | 12.24923 | 16 ft | 123 kts | 249° |
| 2026-05-07 19:21 | 41.80056 | 12.23648 | 103 ft | 159 kts | 252° |
| 2026-05-07 19:21 | 41.79680 | 12.22285 | 776 ft | 155 kts | 251° |
| 2026-05-07 19:21 | 41.79378 | 12.20904 | 1338 ft | 156 kts | 274° |
| 2026-05-07 19:22 | 41.79705 | 12.19551 | 1819 ft | 158 kts | 307° |
| 2026-05-07 19:22 | 41.80359 | 12.18265 | 2246 ft | 180 kts | 306° |
| 2026-05-07 19:22 | 41.81100 | 12.16805 | 2498 ft | 201 kts | 306° |
| 2026-05-07 19:22 | 41.81929 | 12.15165 | 2708 ft | 224 kts | 306° |
| 2026-05-07 19:23 | 41.82850 | 12.13333 | 2956 ft | 250 kts | 306° |
| 2026-05-07 19:23 | 41.83743 | 12.11544 | 3459 ft | 247 kts | 305° |